Time,TemperatureF,DewpointF,PressureIn,WindDirection,WindDirectionDegrees,WindSpeedMPH,WindSpeedGustMPH,Humidity,HourlyPrecipIn,Conditions,Clouds,dailyrainin,SoftwareType,DateUTC
2013-08-02 00:01:00,77.0,74.5,30.01,NE,45,3.0,-999.0,92,-99.99,,,-99.99,meteohub,2013-08-02 04:01:00,
2013-08-02 00:02:00,75.9,74.7,30.01,NE,45,4.0,-999.0,96,-99.99,,,-99.99,meteohub,2013-08-02 04:02:00,
2013-08-02 00:03:00,77.0,74.5,30.01,NE,45,3.0,-999.0,92,-99.99,,,-99.99,meteohub,2013-08-02 04:03:00,
2013-08-02 00:08:00,77.0,74.5,30.01,NE,45,2.0,-999.0,92,-99.99,,,-99.99,meteohub,2013-08-02 04:08:00,
2013-08-02 00:14:00,75.9,73.4,30.01,NE,45,2.0,-999.0,92,-99.99,,,-99.99,meteohub,2013-08-02 04:14:00,
2013-08-02 00:17:00,75.9,73.4,30.01,NE,45,2.0,-999.0,92,-99.99,,,0.00,meteohub,2013-08-02 04:17:00,
2013-08-02 00:22:00,75.9,73.4,30.01,NE,45,0.0,-999.0,92,-99.99,,,-99.99,meteohub,2013-08-02 04:22:00,
2013-08-02 00:27:00,75.9,73.4,30.01,NE,45,0.0,-999.0,92,-99.99,,,-99.99,meteohub,2013-08-02 04:27:00,
2013-08-02 00:32:00,75.9,73.4,30.01,NE,45,0.0,-999.0,92,-99.99,,,-99.99,meteohub,2013-08-02 04:32:00,
2013-08-02 00:37:00,75.9,75.0,30.01,NE,45,1.0,-999.0,97,-99.99,,,-99.99,meteohub,2013-08-02 04:37:00,
2013-08-02 00:42:00,75.9,73.4,30.01,NE,45,2.0,-999.0,92,-99.99,,,-99.99,meteohub,2013-08-02 04:42:00,
2013-08-02 00:47:00,75.9,73.4,30.01,NE,45,3.0,-999.0,92,-99.99,,,-99.99,meteohub,2013-08-02 04:47:00,
2013-08-02 00:52:00,75.9,73.4,30.00,NE,45,2.0,-999.0,92,-99.99,,,-99.99,meteohub,2013-08-02 04:52:00,
2013-08-02 00:57:00,75.9,74.7,30.00,NE,45,1.0,-999.0,96,-99.99,,,-99.99,meteohub,2013-08-02 04:57:00,
2013-08-02 01:03:00,75.9,73.4,30.00,NE,45,1.0,-999.0,92,-99.99,,,-99.99,meteohub,2013-08-02 05:03:00,
2013-08-02 01:08:00,75.9,73.4,30.00,NE,45,1.0,-999.0,92,-99.99,,,-99.99,meteohub,2013-08-02 05:08:00,
2013-08-02 01:13:00,75.9,73.4,30.00,NE,45,3.0,-999.0,92,-99.99,,,-99.99,meteohub,2013-08-02 05:13:00,
2013-08-02 01:18:00,75.9,73.4,30.00,NE,45,1.0,-999.0,92,-99.99,,,-99.99,meteohub,2013-08-02 05:18:00,
2013-08-02 01:24:00,75.9,73.4,29.99,NE,45,3.0,-999.0,92,-99.99,,,-99.99,meteohub,2013-08-02 05:24:00,
2013-08-02 01:29:00,75.9,73.4,29.99,NE,45,0.0,-999.0,92,-99.99,,,-99.99,meteohub,2013-08-02 05:29:00,
2013-08-02 01:34:00,75.9,73.4,29.99,NE,45,0.0,-999.0,92,-99.99,,,-99.99,meteohub,2013-08-02 05:34:00,
2013-08-02 01:39:00,77.0,74.5,29.99,NE,45,1.0,-999.0,92,-99.99,,,-99.99,meteohub,2013-08-02 05:39:00,
2013-08-02 01:44:00,77.0,74.8,29.99,NE,45,1.0,-999.0,93,-99.99,,,-99.99,meteohub,2013-08-02 05:44:00,
2013-08-02 01:49:00,77.0,74.8,29.99,NE,45,0.0,-999.0,93,-99.99,,,-99.99,meteohub,2013-08-02 05:49:00,
2013-08-02 01:54:00,75.9,75.0,29.99,NE,45,2.0,-999.0,97,-99.99,,,-99.99,meteohub,2013-08-02 05:54:00,
2013-08-02 02:00:00,75.9,73.8,29.99,NE,45,3.0,-999.0,93,-99.99,,,-99.99,meteohub,2013-08-02 06:00:00,
2013-08-02 02:05:00,75.9,73.8,29.98,NE,45,3.0,-999.0,93,-99.99,,,-99.99,meteohub,2013-08-02 06:05:00,
2013-08-02 02:10:00,75.9,73.8,29.99,NE,45,0.0,-999.0,93,-99.99,,,-99.99,meteohub,2013-08-02 06:10:00,
2013-08-02 02:15:00,75.9,75.0,29.99,NE,45,0.0,-999.0,97,-99.99,,,-99.99,meteohub,2013-08-02 06:15:00,
2013-08-02 02:20:00,75.9,73.8,29.99,NE,45,2.0,-999.0,93,-99.99,,,-99.99,meteohub,2013-08-02 06:20:00,
2013-08-02 02:25:00,75.9,73.8,29.99,NE,45,0.0,-999.0,93,-99.99,,,-99.99,meteohub,2013-08-02 06:25:00,
2013-08-02 02:30:00,75.9,73.8,29.99,NE,45,1.0,-999.0,93,-99.99,,,-99.99,meteohub,2013-08-02 06:30:00,
2013-08-02 02:35:00,75.9,73.8,29.99,NE,45,0.0,-999.0,93,-99.99,,,-99.99,meteohub,2013-08-02 06:35:00,
2013-08-02 02:40:00,75.9,73.8,29.99,NE,45,2.0,-999.0,93,-99.99,,,-99.99,meteohub,2013-08-02 06:40:00,
2013-08-02 02:46:00,75.9,73.8,29.99,NE,45,0.0,-999.0,93,-99.99,,,-99.99,meteohub,2013-08-02 06:46:00,
2013-08-02 02:51:00,75.9,73.8,29.99,NE,45,0.0,-999.0,93,-99.99,,,-99.99,meteohub,2013-08-02 06:51:00,
2013-08-02 02:56:00,75.9,73.8,29.99,NE,45,0.0,-999.0,93,-99.99,,,-99.99,meteohub,2013-08-02 06:56:00,
2013-08-02 03:01:00,75.9,73.8,29.99,NE,45,0.0,-999.0,93,-99.99,,,-99.99,meteohub,2013-08-02 07:01:00,
2013-08-02 03:06:00,75.9,73.8,29.98,NE,45,0.0,-999.0,93,-99.99,,,-99.99,meteohub,2013-08-02 07:06:00,
2013-08-02 03:11:00,75.9,75.4,29.98,NE,45,0.0,-999.0,98,-99.99,,,-99.99,meteohub,2013-08-02 07:11:00,
2013-08-02 03:16:00,75.9,73.8,29.98,NE,45,0.0,-999.0,93,-99.99,,,-99.99,meteohub,2013-08-02 07:16:00,
2013-08-02 03:21:00,75.9,73.8,29.98,NE,45,2.0,-999.0,93,-99.99,,,-99.99,meteohub,2013-08-02 07:21:00,
2013-08-02 03:26:00,75.9,73.8,29.96,NE,45,0.0,-999.0,93,-99.99,,,-99.99,meteohub,2013-08-02 07:26:00,
2013-08-02 03:31:00,75.9,75.4,29.96,NE,45,0.0,-999.0,98,-99.99,,,-99.99,meteohub,2013-08-02 07:31:00,
2013-08-02 03:37:00,75.9,73.8,29.96,NE,45,0.0,-999.0,93,-99.99,,,-99.99,meteohub,2013-08-02 07:37:00,
2013-08-02 03:42:00,75.9,73.8,29.96,NE,45,0.0,-999.0,93,-99.99,,,-99.99,meteohub,2013-08-02 07:42:00,
2013-08-02 03:47:00,75.9,73.8,29.96,NE,45,0.0,-999.0,93,-99.99,,,-99.99,meteohub,2013-08-02 07:47:00,
2013-08-02 03:52:00,75.9,73.8,29.96,NE,45,0.0,-999.0,93,-99.99,,,-99.99,meteohub,2013-08-02 07:52:00,
2013-08-02 03:57:00,75.9,73.8,29.96,NE,45,0.0,-999.0,93,-99.99,,,-99.99,meteohub,2013-08-02 07:57:00,
2013-08-02 04:02:00,75.9,73.8,29.96,NE,45,2.0,-999.0,93,-99.99,,,-99.99,meteohub,2013-08-02 08:02:00,
2013-08-02 04:08:00,75.9,74.1,29.96,NE,45,0.0,-999.0,94,-99.99,,,-99.99,meteohub,2013-08-02 08:08:00,
2013-08-02 04:13:00,75.9,74.1,29.96,NE,45,0.0,-999.0,94,-99.99,,,-99.99,meteohub,2013-08-02 08:13:00,
2013-08-02 04:18:00,75.9,74.1,29.96,NE,45,0.0,-999.0,94,-99.99,,,-99.99,meteohub,2013-08-02 08:18:00,
2013-08-02 04:23:00,75.9,74.1,29.96,NE,45,1.0,-999.0,94,-99.99,,,-99.99,meteohub,2013-08-02 08:23:00,
2013-08-02 04:28:00,75.9,75.6,29.96,NE,45,0.0,-999.0,99,-99.99,,,-99.99,meteohub,2013-08-02 08:28:00,
2013-08-02 04:33:00,75.9,74.1,29.96,NE,45,2.0,-999.0,94,-99.99,,,-99.99,meteohub,2013-08-02 08:33:00,
2013-08-02 04:38:00,75.9,74.1,29.96,NE,45,1.0,-999.0,94,-99.99,,,-99.99,meteohub,2013-08-02 08:38:00,
2013-08-02 04:44:00,75.9,74.3,29.96,NE,45,0.0,-999.0,95,-99.99,,,-99.99,meteohub,2013-08-02 08:44:00,
2013-08-02 04:49:00,75.9,75.6,29.96,NE,45,1.0,-999.0,99,-99.99,,,-99.99,meteohub,2013-08-02 08:49:00,
2013-08-02 04:54:00,75.9,74.1,29.96,NE,45,2.0,-999.0,94,-99.99,,,-99.99,meteohub,2013-08-02 08:54:00,
2013-08-02 04:59:00,75.9,74.3,29.96,NE,45,3.0,-999.0,95,-99.99,,,-99.99,meteohub,2013-08-02 08:59:00,
2013-08-02 05:04:00,75.9,74.3,29.96,NE,45,0.0,-999.0,95,-99.99,,,-99.99,meteohub,2013-08-02 09:04:00,
2013-08-02 05:10:00,75.0,74.7,29.96,NE,45,0.0,-999.0,99,-99.99,,,-99.99,meteohub,2013-08-02 09:10:00,
2013-08-02 05:15:00,75.9,74.3,29.96,NE,45,0.0,-999.0,95,-99.99,,,-99.99,meteohub,2013-08-02 09:15:00,
2013-08-02 05:20:00,75.9,74.3,29.96,NE,45,1.0,-999.0,95,-99.99,,,-99.99,meteohub,2013-08-02 09:20:00,
2013-08-02 05:25:00,75.9,74.3,29.96,NE,45,2.0,-999.0,95,-99.99,,,-99.99,meteohub,2013-08-02 09:25:00,
2013-08-02 05:30:00,75.9,74.3,29.96,NE,45,0.0,-999.0,95,-99.99,,,-99.99,meteohub,2013-08-02 09:30:00,
2013-08-02 05:36:00,75.9,74.3,29.98,NE,45,0.0,-999.0,95,-99.99,,,-99.99,meteohub,2013-08-02 09:36:00,
2013-08-02 05:41:00,75.9,74.3,29.98,NE,45,0.0,-999.0,95,-99.99,,,-99.99,meteohub,2013-08-02 09:41:00,
2013-08-02 05:46:00,75.9,74.3,29.98,NE,45,0.0,-999.0,95,-99.99,,,-99.99,meteohub,2013-08-02 09:46:00,
2013-08-02 05:51:00,75.9,74.3,29.98,NE,45,0.0,-999.0,95,-99.99,,,-99.99,meteohub,2013-08-02 09:51:00,
2013-08-02 05:56:00,75.9,74.3,29.98,NE,45,2.0,-999.0,95,-99.99,,,-99.99,meteohub,2013-08-02 09:56:00,
2013-08-02 06:01:00,75.9,74.3,29.98,NE,45,1.0,-999.0,95,-99.99,,,-99.99,meteohub,2013-08-02 10:01:00,
2013-08-02 06:06:00,75.0,75.0,29.98,NE,45,1.0,-999.0,100,-99.99,,,-99.99,meteohub,2013-08-02 10:06:00,
2013-08-02 06:11:00,75.9,74.3,29.98,NE,45,0.0,-999.0,95,-99.99,,,-99.99,meteohub,2013-08-02 10:11:00,
2013-08-02 06:17:00,75.9,74.3,29.99,NE,45,0.0,-999.0,95,-99.99,,,-99.99,meteohub,2013-08-02 10:17:00,
2013-08-02 06:22:00,75.9,74.3,29.99,NE,45,1.0,-999.0,95,-99.99,,,-99.99,meteohub,2013-08-02 10:22:00,
2013-08-02 06:27:00,75.9,75.9,30.00,NE,45,0.0,-999.0,100,-99.99,,,-99.99,meteohub,2013-08-02 10:27:00,
2013-08-02 06:32:00,75.9,74.3,30.00,NE,45,0.0,-999.0,95,-99.99,,,-99.99,meteohub,2013-08-02 10:32:00,
2013-08-02 06:37:00,75.9,74.3,30.00,NE,45,1.0,-999.0,95,-99.99,,,-99.99,meteohub,2013-08-02 10:37:00,
2013-08-02 06:42:00,75.9,74.7,29.99,NE,45,0.0,-999.0,96,-99.99,,,-99.99,meteohub,2013-08-02 10:42:00,
2013-08-02 06:47:00,75.9,74.3,29.99,NE,45,0.0,-999.0,95,-99.99,,,-99.99,meteohub,2013-08-02 10:47:00,
2013-08-02 06:52:00,75.9,74.3,30.00,NE,45,0.0,-999.0,95,-99.99,,,-99.99,meteohub,2013-08-02 10:52:00,
2013-08-02 06:57:00,75.9,74.7,29.99,NE,45,3.0,-999.0,96,-99.99,,,-99.99,meteohub,2013-08-02 10:57:00,
2013-08-02 07:02:00,75.9,75.9,29.99,NE,45,0.0,-999.0,100,-99.99,,,-99.99,meteohub,2013-08-02 11:02:00,
2013-08-02 07:08:00,75.9,74.7,29.99,North,0,2.0,-999.0,96,-99.99,,,-99.99,meteohub,2013-08-02 11:08:00,
2013-08-02 07:13:00,75.9,74.7,29.99,NE,45,0.0,-999.0,96,-99.99,,,-99.99,meteohub,2013-08-02 11:13:00,
2013-08-02 07:18:00,75.9,74.7,29.99,NE,45,0.0,-999.0,96,-99.99,,,-99.99,meteohub,2013-08-02 11:18:00,
2013-08-02 07:23:00,75.9,75.9,29.99,NE,45,0.0,-999.0,100,-99.99,,,-99.99,meteohub,2013-08-02 11:23:00,
2013-08-02 07:28:00,77.0,75.7,29.99,NE,45,2.0,-999.0,96,-99.99,,,-99.99,meteohub,2013-08-02 11:28:00,
2013-08-02 07:34:00,77.0,75.7,29.99,NE,45,1.0,-999.0,96,-99.99,,,-99.99,meteohub,2013-08-02 11:34:00,
2013-08-02 07:39:00,78.1,77.2,29.99,NE,45,1.0,-999.0,97,-99.99,,,-99.99,meteohub,2013-08-02 11:39:00,
2013-08-02 07:44:00,77.0,77.0,30.00,NE,45,1.0,-999.0,100,-99.99,,,-99.99,meteohub,2013-08-02 11:44:00,
2013-08-02 07:49:00,78.1,76.5,30.00,SE,135,3.0,-999.0,95,-99.99,,,-99.99,meteohub,2013-08-02 11:49:00,
2013-08-02 07:54:00,78.1,76.5,30.00,SE,135,3.0,-999.0,95,-99.99,,,-99.99,meteohub,2013-08-02 11:54:00,
2013-08-02 07:59:00,79.0,77.2,30.00,SE,135,0.0,-999.0,94,-99.99,,,-99.99,meteohub,2013-08-02 11:59:00,
2013-08-02 08:04:00,79.0,76.8,30.00,SE,135,4.0,-999.0,93,-99.99,,,-99.99,meteohub,2013-08-02 12:04:00,
2013-08-02 08:10:00,79.0,75.7,30.01,SE,135,4.0,-999.0,90,-99.99,,,-99.99,meteohub,2013-08-02 12:10:00,
2013-08-02 08:15:00,79.0,74.8,30.01,NE,45,3.0,-999.0,87,-99.99,,,-99.99,meteohub,2013-08-02 12:15:00,
2013-08-02 08:17:00,79.0,74.8,30.01,NE,45,2.0,-999.0,87,-99.99,,,-99.99,meteohub,2013-08-02 12:17:00,
2013-08-02 08:22:00,80.1,75.9,30.01,SE,135,4.0,-999.0,87,-99.99,,,-99.99,meteohub,2013-08-02 12:22:00,
2013-08-02 08:27:00,80.1,74.8,30.01,SE,135,4.0,-999.0,84,-99.99,,,-99.99,meteohub,2013-08-02 12:27:00,
2013-08-02 08:32:00,81.0,75.7,30.01,SE,135,2.0,-999.0,84,-99.99,,,-99.99,meteohub,2013-08-02 12:32:00,
2013-08-02 08:37:00,81.0,74.7,30.01,SE,135,5.0,-999.0,81,-99.99,,,-99.99,meteohub,2013-08-02 12:37:00,
2013-08-02 08:43:00,81.0,74.1,30.01,SE,135,3.0,-999.0,80,-99.99,,,-99.99,meteohub,2013-08-02 12:43:00,
2013-08-02 08:48:00,82.0,74.8,30.01,SE,135,5.0,-999.0,79,-99.99,,,-99.99,meteohub,2013-08-02 12:48:00,
2013-08-02 08:53:00,81.0,73.4,30.01,SE,135,4.0,-999.0,78,-99.99,,,-99.99,meteohub,2013-08-02 12:53:00,
2013-08-02 08:58:00,82.0,74.8,30.01,SE,135,5.0,-999.0,79,-99.99,,,-99.99,meteohub,2013-08-02 12:58:00,
2013-08-02 09:03:00,82.0,73.8,30.03,SE,135,6.0,-999.0,76,-99.99,,,-99.99,meteohub,2013-08-02 13:03:00,
2013-08-02 09:08:00,82.0,75.6,30.03,NE,45,3.0,-999.0,81,-99.99,,,-99.99,meteohub,2013-08-02 13:08:00,
2013-08-02 09:13:00,82.9,73.0,30.03,SE,135,4.0,-999.0,72,-99.99,,,-99.99,meteohub,2013-08-02 13:13:00,
2013-08-02 09:19:00,82.0,71.2,30.03,SE,135,5.0,-999.0,70,-99.99,,,-99.99,meteohub,2013-08-02 13:19:00,
2013-08-02 09:24:00,82.0,72.1,30.04,SE,135,2.0,-999.0,72,-99.99,,,-99.99,meteohub,2013-08-02 13:24:00,
2013-08-02 09:29:00,82.0,74.1,30.04,SE,135,6.0,-999.0,77,-99.99,,,-99.99,meteohub,2013-08-02 13:29:00,
2013-08-02 09:34:00,82.9,73.0,30.04,SE,135,2.0,-999.0,72,-99.99,,,-99.99,meteohub,2013-08-02 13:34:00,
2013-08-02 09:39:00,82.9,73.0,30.04,SE,135,4.0,-999.0,72,-99.99,,,-99.99,meteohub,2013-08-02 13:39:00,
2013-08-02 09:44:00,84.0,73.9,30.04,SE,135,3.0,-999.0,72,-99.99,,,-99.99,meteohub,2013-08-02 13:44:00,
2013-08-02 09:49:00,84.0,73.9,30.04,SE,135,3.0,-999.0,72,-99.99,,,-99.99,meteohub,2013-08-02 13:49:00,
2013-08-02 09:54:00,84.0,73.9,30.04,SE,135,2.0,-999.0,72,-99.99,,,-99.99,meteohub,2013-08-02 13:54:00,
2013-08-02 10:00:00,84.9,73.2,30.04,SE,135,2.0,-999.0,68,-99.99,,,-99.99,meteohub,2013-08-02 14:00:00,
2013-08-02 10:05:00,86.0,71.1,30.04,SE,135,0.0,-999.0,61,-99.99,,,-99.99,meteohub,2013-08-02 14:05:00,
2013-08-02 10:10:00,87.1,71.1,30.04,SE,135,0.0,-999.0,59,-99.99,,,-99.99,meteohub,2013-08-02 14:10:00,
2013-08-02 10:15:00,87.1,70.5,30.04,SW,225,4.0,-999.0,58,-99.99,,,-99.99,meteohub,2013-08-02 14:15:00,
2013-08-02 10:20:00,87.1,71.1,30.04,SW,225,2.0,-999.0,59,-99.99,,,-99.99,meteohub,2013-08-02 14:20:00,
2013-08-02 10:25:00,88.0,72.9,30.04,SW,225,3.0,-999.0,61,-99.99,,,-99.99,meteohub,2013-08-02 14:25:00,
2013-08-02 10:31:00,84.9,70.5,30.04,WSW,247,6.0,-999.0,62,-99.99,,,-99.99,meteohub,2013-08-02 14:31:00,
2013-08-02 10:36:00,82.9,68.5,30.04,WSW,247,6.0,-999.0,62,-99.99,,,-99.99,meteohub,2013-08-02 14:36:00,
2013-08-02 10:41:00,82.9,70.0,30.04,WSW,247,7.0,-999.0,65,-99.99,,,-99.99,meteohub,2013-08-02 14:41:00,
2013-08-02 10:47:00,82.9,71.8,30.04,WSW,247,7.0,-999.0,69,-99.99,,,-99.99,meteohub,2013-08-02 14:47:00,
2013-08-02 10:52:00,82.9,71.2,30.04,West,270,6.0,-999.0,68,-99.99,,,-99.99,meteohub,2013-08-02 14:52:00,
2013-08-02 10:57:00,82.9,71.8,30.04,West,270,7.0,-999.0,69,-99.99,,,-99.99,meteohub,2013-08-02 14:57:00,
2013-08-02 11:02:00,82.9,72.1,30.04,West,270,7.0,-999.0,70,-99.99,,,-99.99,meteohub,2013-08-02 15:02:00,
2013-08-02 11:07:00,82.9,73.8,30.04,WSW,247,7.0,-999.0,74,-99.99,,,-99.99,meteohub,2013-08-02 15:07:00,
2013-08-02 11:12:00,82.0,72.1,30.04,WSW,247,10.0,-999.0,72,-99.99,,,-99.99,meteohub,2013-08-02 15:12:00,
2013-08-02 11:17:00,82.0,72.9,30.06,WSW,247,8.0,-999.0,74,-99.99,,,-99.99,meteohub,2013-08-02 15:17:00,
2013-08-02 11:23:00,82.0,72.9,30.06,WSW,247,7.0,-999.0,74,-99.99,,,-99.99,meteohub,2013-08-02 15:23:00,
2013-08-02 11:28:00,82.0,74.8,30.06,SW,225,6.0,-999.0,79,-99.99,,,-99.99,meteohub,2013-08-02 15:28:00,
2013-08-02 11:33:00,82.0,73.8,30.06,WSW,247,9.0,-999.0,76,-99.99,,,-99.99,meteohub,2013-08-02 15:33:00,
2013-08-02 11:38:00,82.0,74.5,30.06,West,270,7.0,-999.0,78,-99.99,,,-99.99,meteohub,2013-08-02 15:38:00,
2013-08-02 11:44:00,82.0,72.9,30.06,WSW,247,9.0,-999.0,74,-99.99,,,-99.99,meteohub,2013-08-02 15:44:00,
2013-08-02 11:49:00,82.0,75.2,30.08,West,270,7.0,-999.0,80,-99.99,,,-99.99,meteohub,2013-08-02 15:49:00,
2013-08-02 11:54:00,82.0,73.8,30.08,West,270,9.0,-999.0,76,-99.99,,,-99.99,meteohub,2013-08-02 15:54:00,
2013-08-02 11:59:00,82.0,74.5,30.08,West,270,10.0,-999.0,78,-99.99,,,-99.99,meteohub,2013-08-02 15:59:00,
2013-08-02 12:05:00,82.0,73.4,30.08,WSW,247,10.0,-999.0,75,-99.99,,,-99.99,meteohub,2013-08-02 16:05:00,
2013-08-02 12:10:00,82.0,75.2,30.08,WSW,247,8.0,-999.0,80,-99.99,,,-99.99,meteohub,2013-08-02 16:10:00,
2013-08-02 12:15:00,82.9,74.7,30.08,WSW,247,9.0,-999.0,76,-99.99,,,0.00,meteohub,2013-08-02 16:15:00,
2013-08-02 12:20:00,82.9,75.0,30.08,West,270,9.0,-999.0,77,-99.99,,,0.00,meteohub,2013-08-02 16:20:00,
2013-08-02 12:25:00,82.9,75.0,30.08,West,270,7.0,-999.0,77,-99.99,,,0.00,meteohub,2013-08-02 16:25:00,
2013-08-02 12:30:00,82.9,74.7,30.08,West,270,6.0,-999.0,76,-99.99,,,0.00,meteohub,2013-08-02 16:30:00,
2013-08-02 12:36:00,82.0,73.8,30.08,WSW,247,8.0,-999.0,76,-99.99,,,0.00,meteohub,2013-08-02 16:36:00,
2013-08-02 12:41:00,82.9,74.7,30.08,West,270,7.0,-999.0,76,-99.99,,,0.00,meteohub,2013-08-02 16:41:00,
2013-08-02 12:46:00,82.9,75.4,30.08,West,270,10.0,-999.0,78,-99.99,,,0.00,meteohub,2013-08-02 16:46:00,
2013-08-02 12:51:00,82.0,73.8,30.08,WSW,247,10.0,-999.0,76,-99.99,,,0.00,meteohub,2013-08-02 16:51:00,
2013-08-02 12:56:00,82.9,74.7,30.08,WSW,247,9.0,-999.0,76,-99.99,,,0.00,meteohub,2013-08-02 16:56:00,
2013-08-02 13:01:00,82.9,74.7,30.08,WSW,247,7.0,-999.0,76,-99.99,,,0.00,meteohub,2013-08-02 17:01:00,
2013-08-02 13:07:00,82.9,74.7,30.08,West,270,7.0,-999.0,76,-99.99,,,0.00,meteohub,2013-08-02 17:07:00,
2013-08-02 13:12:00,82.9,74.7,30.08,West,270,7.0,-999.0,76,-99.99,,,0.00,meteohub,2013-08-02 17:12:00,
2013-08-02 13:17:00,82.9,74.7,30.08,WSW,247,5.0,-999.0,76,-99.99,,,0.00,meteohub,2013-08-02 17:17:00,
2013-08-02 13:21:00,82.9,75.4,30.08,West,270,9.0,-999.0,78,-99.99,,,0.00,meteohub,2013-08-02 17:21:00,
2013-08-02 13:27:00,82.9,74.7,30.08,WSW,247,8.0,-999.0,76,-99.99,,,0.00,meteohub,2013-08-02 17:27:00,
2013-08-02 13:32:00,82.9,74.7,30.08,West,270,9.0,-999.0,76,-99.99,,,0.00,meteohub,2013-08-02 17:32:00,
2013-08-02 13:37:00,84.0,76.5,30.08,West,270,10.0,-999.0,78,-99.99,,,0.00,meteohub,2013-08-02 17:37:00,
2013-08-02 13:41:00,82.9,73.8,30.08,SW,225,7.0,-999.0,74,-99.99,,,0.00,meteohub,2013-08-02 17:41:00,
2013-08-02 13:47:00,82.9,73.8,30.08,West,270,7.0,-999.0,74,-99.99,,,0.00,meteohub,2013-08-02 17:47:00,
2013-08-02 13:51:00,82.9,72.5,30.08,WSW,247,6.0,-999.0,71,-99.99,,,0.00,meteohub,2013-08-02 17:51:00,
2013-08-02 13:57:00,82.9,74.7,30.08,West,270,10.0,-999.0,76,-99.99,,,0.00,meteohub,2013-08-02 17:57:00,
2013-08-02 14:02:00,82.9,75.7,30.06,WSW,247,10.0,-999.0,79,-99.99,,,0.00,meteohub,2013-08-02 18:02:00,
2013-08-02 14:07:00,82.9,73.8,30.06,WSW,247,10.0,-999.0,74,-99.99,,,0.00,meteohub,2013-08-02 18:07:00,
2013-08-02 14:12:00,82.9,75.0,30.06,West,270,9.0,-999.0,77,-99.99,,,0.00,meteohub,2013-08-02 18:12:00,
2013-08-02 14:17:00,82.9,73.8,30.06,WSW,247,12.0,-999.0,74,-99.99,,,0.00,meteohub,2013-08-02 18:17:00,
2013-08-02 14:22:00,82.9,73.8,30.06,WSW,247,9.0,-999.0,74,-99.99,,,0.00,meteohub,2013-08-02 18:22:00,
2013-08-02 14:28:00,82.9,73.8,30.06,West,270,7.0,-999.0,74,-99.99,,,0.00,meteohub,2013-08-02 18:28:00,
2013-08-02 14:33:00,82.9,74.7,30.06,WSW,247,9.0,-999.0,76,-99.99,,,0.00,meteohub,2013-08-02 18:33:00,
2013-08-02 14:38:00,82.9,73.8,30.06,WSW,247,9.0,-999.0,74,-99.99,,,0.00,meteohub,2013-08-02 18:38:00,
2013-08-02 14:43:00,82.9,73.8,30.06,SW,225,8.0,-999.0,74,-99.99,,,0.00,meteohub,2013-08-02 18:43:00,
2013-08-02 14:48:00,82.9,74.1,30.06,WSW,247,7.0,-999.0,75,-99.99,,,0.00,meteohub,2013-08-02 18:48:00,
2013-08-02 14:53:00,82.9,73.8,30.04,WSW,247,11.0,-999.0,74,-99.99,,,0.00,meteohub,2013-08-02 18:53:00,
2013-08-02 14:58:00,82.9,73.8,30.04,WSW,247,9.0,-999.0,74,-99.99,,,0.00,meteohub,2013-08-02 18:58:00,
2013-08-02 15:04:00,82.9,74.1,30.04,West,270,8.0,-999.0,75,-99.99,,,0.00,meteohub,2013-08-02 19:04:00,
2013-08-02 15:09:00,84.0,76.1,30.04,West,270,8.0,-999.0,77,-99.99,,,0.00,meteohub,2013-08-02 19:09:00,
2013-08-02 15:14:00,84.0,75.2,30.04,WSW,247,10.0,-999.0,75,-99.99,,,0.00,meteohub,2013-08-02 19:14:00,
2013-08-02 15:19:00,82.9,75.7,30.04,WSW,247,9.0,-999.0,79,-99.99,,,0.00,meteohub,2013-08-02 19:19:00,
2013-08-02 15:24:00,84.0,76.1,30.04,WSW,247,9.0,-999.0,77,-99.99,,,0.00,meteohub,2013-08-02 19:24:00,
2013-08-02 15:30:00,82.9,74.1,30.04,WSW,247,9.0,-999.0,75,-99.99,,,0.00,meteohub,2013-08-02 19:30:00,
2013-08-02 15:35:00,82.9,73.8,30.04,WSW,247,9.0,-999.0,74,-99.99,,,0.00,meteohub,2013-08-02 19:35:00,
2013-08-02 15:40:00,82.9,75.7,30.04,WSW,247,9.0,-999.0,79,-99.99,,,0.00,meteohub,2013-08-02 19:40:00,
2013-08-02 15:45:00,82.9,73.8,30.04,SW,225,7.0,-999.0,74,-99.99,,,0.00,meteohub,2013-08-02 19:45:00,
2013-08-02 15:50:00,84.0,74.8,30.04,SW,225,8.0,-999.0,74,-99.99,,,0.00,meteohub,2013-08-02 19:50:00,
2013-08-02 15:56:00,84.0,74.8,30.04,WSW,247,7.0,-999.0,74,-99.99,,,0.00,meteohub,2013-08-02 19:56:00,
2013-08-02 16:01:00,84.0,76.1,30.04,West,270,8.0,-999.0,77,-99.99,,,0.00,meteohub,2013-08-02 20:01:00,
2013-08-02 16:06:00,84.0,73.9,30.04,West,270,8.0,-999.0,72,-99.99,,,0.00,meteohub,2013-08-02 20:06:00,
2013-08-02 16:11:00,84.0,73.9,30.04,West,270,8.0,-999.0,72,-99.99,,,0.00,meteohub,2013-08-02 20:11:00,
2013-08-02 16:16:00,84.0,74.5,30.04,West,270,9.0,-999.0,73,-99.99,,,0.00,meteohub,2013-08-02 20:16:00,
2013-08-02 16:22:00,84.0,75.6,30.04,WSW,247,9.0,-999.0,76,-99.99,,,0.00,meteohub,2013-08-02 20:22:00,
2013-08-02 16:27:00,84.0,73.9,30.04,WSW,247,10.0,-999.0,72,-99.99,,,0.00,meteohub,2013-08-02 20:27:00,
2013-08-02 16:32:00,84.0,74.5,30.04,WSW,247,8.0,-999.0,73,-99.99,,,0.00,meteohub,2013-08-02 20:32:00,
2013-08-02 16:37:00,84.0,73.9,30.04,West,270,8.0,-999.0,72,-99.99,,,0.00,meteohub,2013-08-02 20:37:00,
2013-08-02 16:42:00,84.0,74.5,30.04,West,270,4.0,-999.0,73,-99.99,,,0.00,meteohub,2013-08-02 20:42:00,
2013-08-02 16:47:00,84.0,73.2,30.04,WSW,247,7.0,-999.0,70,-99.99,,,0.00,meteohub,2013-08-02 20:47:00,
2013-08-02 16:52:00,84.0,73.2,30.04,WSW,247,7.0,-999.0,70,-99.99,,,0.00,meteohub,2013-08-02 20:52:00,
2013-08-02 16:57:00,84.9,75.2,30.04,WSW,247,7.0,-999.0,73,-99.99,,,0.00,meteohub,2013-08-02 20:57:00,
2013-08-02 17:02:00,84.9,74.1,30.04,West,270,6.0,-999.0,70,-99.99,,,0.00,meteohub,2013-08-02 21:02:00,
2013-08-02 17:07:00,84.9,74.1,30.04,WSW,247,6.0,-999.0,70,-99.99,,,0.00,meteohub,2013-08-02 21:07:00,
2013-08-02 17:12:00,84.9,74.1,30.04,WSW,247,8.0,-999.0,70,-99.99,,,0.00,meteohub,2013-08-02 21:12:00,
2013-08-02 17:17:00,84.9,74.5,30.04,WSW,247,6.0,-999.0,71,-99.99,,,0.00,meteohub,2013-08-02 21:17:00,
2013-08-02 17:22:00,84.9,74.1,30.04,SW,225,6.0,-999.0,70,-99.99,,,0.00,meteohub,2013-08-02 21:22:00,
2013-08-02 17:27:00,84.9,74.1,30.03,SW,225,5.0,-999.0,70,-99.99,,,0.00,meteohub,2013-08-02 21:27:00,
2013-08-02 17:33:00,84.9,74.1,30.03,West,270,6.0,-999.0,70,-99.99,,,0.00,meteohub,2013-08-02 21:33:00,
2013-08-02 17:38:00,84.9,74.1,30.03,WSW,247,8.0,-999.0,70,-99.99,,,0.00,meteohub,2013-08-02 21:38:00,
2013-08-02 17:43:00,84.9,73.6,30.03,WSW,247,9.0,-999.0,69,-99.99,,,0.00,meteohub,2013-08-02 21:43:00,
2013-08-02 17:48:00,84.9,74.1,30.03,West,270,6.0,-999.0,70,-99.99,,,0.00,meteohub,2013-08-02 21:48:00,
2013-08-02 17:53:00,86.0,75.9,30.03,West,270,4.0,-999.0,72,-99.99,,,0.00,meteohub,2013-08-02 21:53:00,
2013-08-02 17:58:00,84.9,73.6,30.03,West,270,8.0,-999.0,69,-99.99,,,0.00,meteohub,2013-08-02 21:58:00,
2013-08-02 18:03:00,84.9,74.5,30.03,WSW,247,9.0,-999.0,71,-99.99,,,0.00,meteohub,2013-08-02 22:03:00,
2013-08-02 18:09:00,84.9,74.8,30.03,WSW,247,9.0,-999.0,72,-99.99,,,0.00,meteohub,2013-08-02 22:09:00,
2013-08-02 18:14:00,84.9,74.8,30.01,West,270,5.0,-999.0,72,-99.99,,,0.00,meteohub,2013-08-02 22:14:00,
2013-08-02 18:19:00,84.9,74.1,30.01,WSW,247,9.0,-999.0,70,-99.99,,,-99.99,meteohub,2013-08-02 22:19:00,
2013-08-02 18:24:00,84.9,74.1,30.01,West,270,10.0,-999.0,70,-99.99,,,-99.99,meteohub,2013-08-02 22:24:00,
2013-08-02 18:29:00,84.9,74.1,30.03,West,270,10.0,-999.0,70,-99.99,,,-99.99,meteohub,2013-08-02 22:29:00,
2013-08-02 18:35:00,84.9,74.8,30.03,SSW,202,6.0,-999.0,72,-99.99,,,-99.99,meteohub,2013-08-02 22:35:00,
2013-08-02 18:40:00,84.9,74.5,30.03,WSW,247,9.0,-999.0,71,-99.99,,,-99.99,meteohub,2013-08-02 22:40:00,
2013-08-02 18:45:00,84.9,73.6,30.03,West,270,9.0,-999.0,69,-99.99,,,-99.99,meteohub,2013-08-02 22:45:00,
2013-08-02 18:50:00,84.9,74.1,30.03,West,270,7.0,-999.0,70,-99.99,,,-99.99,meteohub,2013-08-02 22:50:00,
2013-08-02 18:56:00,84.9,74.8,30.03,West,270,8.0,-999.0,72,-99.99,,,-99.99,meteohub,2013-08-02 22:56:00,
2013-08-02 19:01:00,84.9,74.1,30.03,West,270,8.0,-999.0,70,-99.99,,,-99.99,meteohub,2013-08-02 23:01:00,
2013-08-02 19:06:00,84.9,74.1,30.03,West,270,10.0,-999.0,70,-99.99,,,-99.99,meteohub,2013-08-02 23:06:00,
2013-08-02 19:11:00,84.9,74.1,30.03,WSW,247,5.0,-999.0,70,-99.99,,,-99.99,meteohub,2013-08-02 23:11:00,
2013-08-02 19:16:00,84.9,74.8,30.03,WSW,247,9.0,-999.0,72,-99.99,,,-99.99,meteohub,2013-08-02 23:16:00,
2013-08-02 19:22:00,84.0,73.6,30.04,West,270,7.0,-999.0,71,-99.99,,,-99.99,meteohub,2013-08-02 23:22:00,
2013-08-02 19:27:00,84.0,73.6,30.04,West,270,7.0,-999.0,71,-99.99,,,-99.99,meteohub,2013-08-02 23:27:00,
2013-08-02 19:32:00,84.0,73.9,30.04,WSW,247,5.0,-999.0,72,-99.99,,,-99.99,meteohub,2013-08-02 23:32:00,
2013-08-02 19:37:00,84.0,74.5,30.06,WSW,247,6.0,-999.0,73,-99.99,,,-99.99,meteohub,2013-08-02 23:37:00,
2013-08-02 19:43:00,84.0,74.5,30.06,West,270,6.0,-999.0,73,-99.99,,,-99.99,meteohub,2013-08-02 23:43:00,
2013-08-02 19:48:00,84.0,73.2,30.06,SW,225,6.0,-999.0,70,-99.99,,,-99.99,meteohub,2013-08-02 23:48:00,
2013-08-02 19:53:00,84.0,73.6,30.06,SW,225,6.0,-999.0,71,-99.99,,,-99.99,meteohub,2013-08-02 23:53:00,
2013-08-02 19:58:00,84.0,73.6,30.06,SW,225,7.0,-999.0,71,-99.99,,,-99.99,meteohub,2013-08-02 23:58:00,
2013-08-02 20:04:00,84.0,73.9,30.06,WSW,247,6.0,-999.0,72,-99.99,,,-99.99,meteohub,2013-08-03 00:04:00,
2013-08-02 20:09:00,84.0,74.5,30.08,SW,225,6.0,-999.0,73,-99.99,,,-99.99,meteohub,2013-08-03 00:09:00,
2013-08-02 20:14:00,84.0,74.5,30.08,SW,225,4.0,-999.0,73,-99.99,,,-99.99,meteohub,2013-08-03 00:14:00,
2013-08-02 20:19:00,84.0,74.5,30.08,SW,225,4.0,-999.0,73,-99.99,,,-99.99,meteohub,2013-08-03 00:19:00,
2013-08-02 20:24:00,82.9,73.0,30.08,SW,225,4.0,-999.0,72,-99.99,,,-99.99,meteohub,2013-08-03 00:24:00,
2013-08-02 20:30:00,84.0,74.5,30.08,SW,225,5.0,-999.0,73,-99.99,,,-99.99,meteohub,2013-08-03 00:30:00,
2013-08-02 20:35:00,82.9,73.0,30.08,SW,225,5.0,-999.0,72,-99.99,,,-99.99,meteohub,2013-08-03 00:35:00,
2013-08-02 20:40:00,82.9,73.0,30.08,SW,225,6.0,-999.0,72,-99.99,,,-99.99,meteohub,2013-08-03 00:40:00,
2013-08-02 20:45:00,82.9,73.0,30.08,SW,225,5.0,-999.0,72,-99.99,,,-99.99,meteohub,2013-08-03 00:45:00,
2013-08-02 20:50:00,82.9,73.0,30.09,SW,225,7.0,-999.0,72,-99.99,,,-99.99,meteohub,2013-08-03 00:50:00,
2013-08-02 20:56:00,82.9,73.0,30.09,SW,225,4.0,-999.0,72,-99.99,,,-99.99,meteohub,2013-08-03 00:56:00,
2013-08-02 21:01:00,82.9,73.4,30.09,SW,225,4.0,-999.0,73,-99.99,,,-99.99,meteohub,2013-08-03 01:01:00,
2013-08-02 21:06:00,82.9,73.8,30.09,SW,225,4.0,-999.0,74,-99.99,,,-99.99,meteohub,2013-08-03 01:06:00,
2013-08-02 21:11:00,82.9,73.4,30.09,SSW,202,5.0,-999.0,73,-99.99,,,-99.99,meteohub,2013-08-03 01:11:00,
2013-08-02 21:16:00,82.9,74.7,30.09,SSW,202,4.0,-999.0,76,-99.99,,,-99.99,meteohub,2013-08-03 01:16:00,
2013-08-02 21:21:00,82.9,73.0,30.09,South,180,2.0,-999.0,72,-99.99,,,-99.99,meteohub,2013-08-03 01:21:00,
2013-08-02 21:27:00,82.9,73.4,30.09,WSW,247,5.0,-999.0,73,-99.99,,,-99.99,meteohub,2013-08-03 01:27:00,
2013-08-02 21:32:00,82.9,73.4,30.09,SW,225,3.0,-999.0,73,-99.99,,,-99.99,meteohub,2013-08-03 01:32:00,
2013-08-02 21:37:00,82.9,75.0,30.09,SW,225,5.0,-999.0,77,-99.99,,,-99.99,meteohub,2013-08-03 01:37:00,
2013-08-02 21:42:00,82.9,73.4,30.09,SW,225,6.0,-999.0,73,-99.99,,,-99.99,meteohub,2013-08-03 01:42:00,
2013-08-02 21:48:00,82.9,73.4,30.09,SSW,202,4.0,-999.0,73,-99.99,,,-99.99,meteohub,2013-08-03 01:48:00,
2013-08-02 21:53:00,82.9,73.4,30.09,SW,225,3.0,-999.0,73,-99.99,,,-99.99,meteohub,2013-08-03 01:53:00,
2013-08-02 21:58:00,82.9,74.7,30.09,SW,225,3.0,-999.0,76,-99.99,,,-99.99,meteohub,2013-08-03 01:58:00,
2013-08-02 22:03:00,82.9,73.8,30.09,WSW,247,4.0,-999.0,74,-99.99,,,-99.99,meteohub,2013-08-03 02:03:00,
2013-08-02 22:08:00,82.9,73.8,30.09,WSW,247,5.0,-999.0,74,-99.99,,,-99.99,meteohub,2013-08-03 02:08:00,
2013-08-02 22:13:00,82.9,73.4,30.09,SW,225,2.0,-999.0,73,-99.99,,,-99.99,meteohub,2013-08-03 02:13:00,
2013-08-02 22:18:00,82.9,73.8,30.09,SW,225,3.0,-999.0,74,-99.99,,,-99.99,meteohub,2013-08-03 02:18:00,
2013-08-02 22:24:00,82.9,73.4,30.09,SW,225,2.0,-999.0,73,-99.99,,,-99.99,meteohub,2013-08-03 02:24:00,
2013-08-02 22:29:00,82.9,73.4,30.09,SW,225,4.0,-999.0,73,-99.99,,,-99.99,meteohub,2013-08-03 02:29:00,
2013-08-02 22:34:00,82.9,73.4,30.09,SW,225,4.0,-999.0,73,-99.99,,,-99.99,meteohub,2013-08-03 02:34:00,
2013-08-02 22:39:00,82.9,73.8,30.09,SW,225,2.0,-999.0,74,-99.99,,,-99.99,meteohub,2013-08-03 02:39:00,
2013-08-02 22:44:00,82.9,73.8,30.09,SW,225,2.0,-999.0,74,-99.99,,,-99.99,meteohub,2013-08-03 02:44:00,
2013-08-02 22:49:00,82.9,73.8,30.09,SW,225,1.0,-999.0,74,-99.99,,,-99.99,meteohub,2013-08-03 02:49:00,
2013-08-02 22:55:00,82.9,75.0,30.09,SSW,202,4.0,-999.0,77,-99.99,,,-99.99,meteohub,2013-08-03 02:55:00,
2013-08-02 23:00:00,82.9,73.8,30.09,South,180,5.0,-999.0,74,-99.99,,,-99.99,meteohub,2013-08-03 03:00:00,
2013-08-02 23:05:00,82.9,73.8,30.09,South,180,4.0,-999.0,74,-99.99,,,-99.99,meteohub,2013-08-03 03:05:00,
2013-08-02 23:10:00,82.9,73.0,30.09,South,180,5.0,-999.0,72,-99.99,,,-99.99,meteohub,2013-08-03 03:10:00,
2013-08-02 23:16:00,82.9,73.0,30.09,South,180,6.0,-999.0,72,-99.99,,,-99.99,meteohub,2013-08-03 03:16:00,
2013-08-02 23:21:00,82.9,73.0,30.09,SSW,202,5.0,-999.0,72,-99.99,,,-99.99,meteohub,2013-08-03 03:21:00,
2013-08-02 23:26:00,82.9,73.0,30.09,South,180,4.0,-999.0,72,-99.99,,,-99.99,meteohub,2013-08-03 03:26:00,
2013-08-02 23:31:00,82.9,72.5,30.09,SSE,157,7.0,-999.0,71,-99.99,,,-99.99,meteohub,2013-08-03 03:31:00,
2013-08-02 23:37:00,84.0,75.2,30.09,South,180,6.0,-999.0,75,-99.99,,,-99.99,meteohub,2013-08-03 03:37:00,
2013-08-02 23:42:00,82.9,72.5,30.09,South,180,7.0,-999.0,71,-99.99,,,-99.99,meteohub,2013-08-03 03:42:00,
2013-08-02 23:47:00,82.9,72.5,30.09,South,180,4.0,-999.0,71,-99.99,,,-99.99,meteohub,2013-08-03 03:47:00,
2013-08-02 23:52:00,82.9,73.0,30.09,SSW,202,7.0,-999.0,72,-99.99,,,-99.99,meteohub,2013-08-03 03:52:00,
2013-08-02 23:57:00,82.9,73.8,30.08,South,180,7.0,-999.0,74,-99.99,,,-99.99,meteohub,2013-08-03 03:57:00,